Austin, TX (78710)

3:41 PM CDT on September 26, 2016 (GMT -0500)
North Acres | | Change Station

Elev 686 ft 30.37 °N, 97.67 °W | Updated 4 minutes ago

Overcast
Overcast
71.6 °F
Feels Like 71 °F
N
7.3
Wind Variable Wind from North

Today
High -- | Low -- °F
--% Chance of Precip.
Yesterday
High -- | Low -- °F
Precip. -- in
Pressure 30.08 in
Visibility 10.0 miles
Clouds Overcast 1000 ft
Heat Index 71 °F
Dew Point 66 °F
Humidity 84%
Rainfall 0.46 in
Snow Depth Not available.
7:21 AM 7:21 PM
Waning Crescent, 16% visible
METAR KEDC 262035Z AUTO 02013G18KT 10SM OVC010 22/20 A3008 RMK AO2
Pressure 30.08 in
Visibility 10.0 miles
Clouds Overcast 1000 ft
Heat Index 71 °F
Dew Point 66 °F
Humidity 84%
Rainfall 0.46 in
Snow Depth Not available.
7:21 AM 7:21 PM
Waning Crescent, 16% visible
METAR KEDC 262035Z AUTO 02013G18KT 10SM OVC010 22/20 A3008 RMK AO2

10-Day Weather Forecast

Almanac

Astronomy

Sep. 26, 2016 Rise Set
Actual Time
Civil Twilight
Nautical Twilight
Astronomical Twilight
Moon
Length of Visible Light
Length of Day
Tomorrow will be .
, % of the Moon is Illuminated

Today's Extremes

State Highs State Lows

Community

WunderPhotos

Upload Photos

1,941,963 photos uploaded!

WunderBlog® & News

Nearby

Air Quality

  Air Quality AQ Index Pollutant
Not available.

Snow Depth

Station Depth Elevation

Earthquake Activity

City Distance Mag. Time & Date
Minimum magnitude displayed is 2.5.

Coastal Water Temperatures

Place Temperature

Stations

Nearby Weather Stations

Station Location Temp. Windchill Dew Point Humidity Wind Precip. Elev Updated Type
                   

Watches & Warnings

There are currently no watches in effect.